createdAt,value
2023-06-29T00:00:31.059Z,74.61
2023-06-29T00:01:34.316Z,74.26
2023-06-29T00:02:36.201Z,74.28
2023-06-29T00:03:37.954Z,74.26
2023-06-29T00:04:39.674Z,74.86
2023-06-29T00:05:41.616Z,75.31
2023-06-29T00:06:43.560Z,76.01
2023-06-29T00:07:45.265Z,75.18
2023-06-29T00:08:46.946Z,75.01
2023-06-29T00:09:48.936Z,74.96
2023-06-29T00:10:51.013Z,74.50
2023-06-29T00:11:52.621Z,74.71
2023-06-29T00:12:55.713Z,74.18
2023-06-29T00:13:57.436Z,74.18
2023-06-29T00:14:59.144Z,74.36
2023-06-29T00:16:01.196Z,74.32
2023-06-29T00:17:04.550Z,74.33
2023-06-29T00:18:06.249Z,75.12
2023-06-29T00:19:08.036Z,75.60
2023-06-29T00:20:10.002Z,75.43
2023-06-29T00:21:11.791Z,74.93
2023-06-29T00:22:15.830Z,75.37
2023-06-29T00:23:17.417Z,75.43
2023-06-29T00:24:19.037Z,75.19
2023-06-29T00:25:20.719Z,75.43
2023-06-29T00:26:22.334Z,75.47
2023-06-29T00:27:24.169Z,76.03
2023-06-29T00:28:25.945Z,75.92
2023-06-29T00:29:29.200Z,75.97
2023-06-29T00:30:31.818Z,76.31
2023-06-29T00:31:34.159Z,76.23
2023-06-29T00:32:37.362Z,75.79
2023-06-29T00:33:39.397Z,75.63
2023-06-29T00:34:41.002Z,75.36
2023-06-29T00:35:42.905Z,75.36
2023-06-29T00:36:44.747Z,75.35
2023-06-29T00:37:46.842Z,75.16
2023-06-29T00:38:48.530Z,75.34
2023-06-29T00:39:51.573Z,75.11
2023-06-29T00:40:53.269Z,74.82
2023-06-29T00:41:55.734Z,74.73
2023-06-29T00:42:57.400Z,74.61
2023-06-29T00:43:59.012Z,75.22
2023-06-29T00:45:00.726Z,75.04
2023-06-29T00:46:02.457Z,75.24
2023-06-29T00:47:05.330Z,74.91
2023-06-29T00:48:08.504Z,74.89
2023-06-29T00:49:10.330Z,75.21
2023-06-29T00:50:12.904Z,75.44
2023-06-29T00:51:16.467Z,75.23
2023-06-29T00:52:18.521Z,75.90
2023-06-29T00:53:20.328Z,75.29
2023-06-29T00:54:23.878Z,75.31
2023-06-29T00:55:25.825Z,75.41
2023-06-29T00:56:30.044Z,76.08
2023-06-29T00:57:31.709Z,76.72
2023-06-29T00:58:33.396Z,77.66
2023-06-29T00:59:35.217Z,77.20
2023-06-29T01:00:38.344Z,77.08
2023-06-29T01:01:42.223Z,77.41
2023-06-29T01:02:44.173Z,76.94
2023-06-29T01:03:48.579Z,76.85
2023-06-29T01:04:50.300Z,76.52
2023-06-29T01:06:02.187Z,76.80
2023-06-29T01:07:10.749Z,77.16
2023-06-29T01:08:17.565Z,76.92
2023-06-29T01:09:19.429Z,76.55
2023-06-29T01:10:25.756Z,76.13
2023-06-29T01:11:30.033Z,76.21
2023-06-29T01:12:34.227Z,75.45
2023-06-29T01:13:39.608Z,75.76
2023-06-29T01:14:42.970Z,75.56
2023-06-29T01:15:46.648Z,75.28
2023-06-29T01:16:49.659Z,75.12
2023-06-29T01:17:54.471Z,74.95
2023-06-29T01:18:59.018Z,74.84
2023-06-29T01:20:02.434Z,75.65
2023-06-29T01:21:05.101Z,75.69
2023-06-29T01:22:13.341Z,76.33
2023-06-29T01:23:23.008Z,76.23
2023-06-29T01:24:27.929Z,76.22
2023-06-29T01:25:31.070Z,76.35
2023-06-29T01:26:33.307Z,76.80
2023-06-29T01:27:35.724Z,76.88
2023-06-29T01:28:37.355Z,77.05
2023-06-29T01:29:39.012Z,76.40
2023-06-29T01:30:40.943Z,76.36
2023-06-29T01:31:42.612Z,76.01
2023-06-29T01:32:44.362Z,76.35
2023-06-29T01:33:46.641Z,76.62
2023-06-29T01:34:48.806Z,76.99
2023-06-29T01:35:54.783Z,77.15
2023-06-29T01:37:00.985Z,76.83
2023-06-29T01:38:07.901Z,77.21
2023-06-29T01:39:17.407Z,77.02
2023-06-29T01:40:21.935Z,76.72
2023-06-29T01:41:26.582Z,76.51
2023-06-29T01:42:34.036Z,76.62
2023-06-29T01:43:36.686Z,76.71
2023-06-29T01:44:38.525Z,76.82
2023-06-29T01:45:42.413Z,76.73
2023-06-29T01:46:45.021Z,76.43
2023-06-29T01:47:47.883Z,76.65
2023-06-29T01:48:50.930Z,76.59
2023-06-29T01:49:52.652Z,76.78
2023-06-29T01:50:54.619Z,76.67
2023-06-29T01:51:56.385Z,76.23
2023-06-29T01:52:58.164Z,77.20
2023-06-29T01:53:59.799Z,77.06
2023-06-29T01:55:01.534Z,76.60
2023-06-29T01:56:03.398Z,76.42
2023-06-29T01:57:07.943Z,76.69
2023-06-29T01:58:10.627Z,76.57
2023-06-29T01:59:12.281Z,76.61
2023-06-29T02:00:14.844Z,76.75
2023-06-29T02:01:16.725Z,76.75
2023-06-29T02:02:18.658Z,76.33
2023-06-29T02:03:20.718Z,76.79
2023-06-29T02:04:22.534Z,76.16
2023-06-29T02:05:24.533Z,75.90
2023-06-29T02:06:26.189Z,76.14
2023-06-29T02:07:28.052Z,76.00
2023-06-29T02:08:29.698Z,76.22
2023-06-29T02:09:31.397Z,76.35
2023-06-29T02:10:32.997Z,76.25
2023-06-29T02:11:37.548Z,76.90
2023-06-29T02:12:41.021Z,76.67
2023-06-29T02:13:43.565Z,76.54
2023-06-29T02:14:45.286Z,76.51
2023-06-29T02:15:47.092Z,75.99
2023-06-29T02:16:49.192Z,75.81
2023-06-29T02:17:50.831Z,76.27
2023-06-29T02:18:52.611Z,76.07
2023-06-29T02:19:54.213Z,76.84
2023-06-29T02:20:57.543Z,76.45
2023-06-29T02:21:59.152Z,76.45
2023-06-29T02:23:00.749Z,76.79
2023-06-29T02:24:02.328Z,76.84
2023-06-29T02:25:04.583Z,76.82
2023-06-29T02:26:08.638Z,76.98
2023-06-29T02:27:11.665Z,76.76
2023-06-29T02:28:14.698Z,76.79
2023-06-29T02:29:16.409Z,76.25
2023-06-29T02:30:19.552Z,76.61
2023-06-29T02:31:21.216Z,76.72
2023-06-29T02:32:25.043Z,76.31
2023-06-29T02:33:26.735Z,77.24
2023-06-29T02:34:28.540Z,77.86
2023-06-29T02:35:30.271Z,77.88
2023-06-29T02:36:31.841Z,77.29
2023-06-29T02:37:33.612Z,77.60
2023-06-29T02:38:35.331Z,77.56
2023-06-29T02:39:36.960Z,77.67
2023-06-29T02:40:38.587Z,77.33
2023-06-29T02:41:40.359Z,77.50
2023-06-29T02:42:42.451Z,77.01
2023-06-29T02:43:47.323Z,76.75
2023-06-29T02:44:49.057Z,76.68
2023-06-29T02:45:50.783Z,76.74
2023-06-29T02:46:53.933Z,76.50
2023-06-29T02:47:55.574Z,76.00
2023-06-29T02:48:57.481Z,76.02
2023-06-29T02:49:59.500Z,76.20
2023-06-29T02:51:01.859Z,77.28
2023-06-29T02:52:03.849Z,77.38
2023-06-29T02:53:05.536Z,77.40
2023-06-29T02:54:07.700Z,77.58
2023-06-29T02:55:09.652Z,77.88
2023-06-29T02:56:11.334Z,78.45
2023-06-29T02:57:13.029Z,78.69
2023-06-29T02:58:14.618Z,78.72
2023-06-29T02:59:17.876Z,78.45
2023-06-29T03:00:20.194Z,78.20
2023-06-29T03:01:21.896Z,78.09
2023-06-29T03:02:23.614Z,77.72
2023-06-29T03:03:25.649Z,77.68
2023-06-29T03:04:27.329Z,77.65
2023-06-29T03:05:29.486Z,77.59
2023-06-29T03:06:31.196Z,77.45
2023-06-29T03:07:33.222Z,76.97
2023-06-29T03:08:36.544Z,77.02
2023-06-29T03:09:38.145Z,77.46
2023-06-29T03:10:39.868Z,77.89
2023-06-29T03:11:41.496Z,77.90
2023-06-29T03:12:43.308Z,78.83
2023-06-29T03:13:44.960Z,79.08
2023-06-29T03:14:47.979Z,79.57
2023-06-29T03:15:49.578Z,79.52
2023-06-29T03:16:51.303Z,79.58
2023-06-29T03:17:53.030Z,78.99
2023-06-29T03:18:54.870Z,79.09
2023-06-29T03:19:56.626Z,78.55
2023-06-29T03:20:58.286Z,77.69
2023-06-29T03:21:59.948Z,77.34
2023-06-29T03:23:01.628Z,77.13
2023-06-29T03:24:03.547Z,76.77
2023-06-29T03:25:06.820Z,77.06
2023-06-29T03:26:08.556Z,76.91
2023-06-29T03:27:10.140Z,76.96
2023-06-29T03:28:11.805Z,77.10
2023-06-29T03:29:13.532Z,77.74
2023-06-29T03:30:16.933Z,77.62
2023-06-29T03:31:18.760Z,78.10
2023-06-29T03:32:21.021Z,77.67
2023-06-29T03:33:22.683Z,77.79
2023-06-29T03:34:24.320Z,77.51
2023-06-29T03:35:25.984Z,77.64
2023-06-29T03:36:27.615Z,77.58
2023-06-29T03:37:29.153Z,77.20
2023-06-29T03:38:30.862Z,77.39
2023-06-29T03:39:32.776Z,77.24
2023-06-29T03:40:34.481Z,77.22
2023-06-29T03:41:36.282Z,77.52
2023-06-29T03:42:37.870Z,76.91
2023-06-29T03:43:39.465Z,76.91
2023-06-29T03:44:41.080Z,77.56
2023-06-29T03:45:44.325Z,77.04
2023-06-29T03:46:49.067Z,77.41
2023-06-29T03:47:50.761Z,77.10
2023-06-29T03:48:52.563Z,77.76
2023-06-29T03:49:54.296Z,77.40
2023-06-29T03:50:56.788Z,78.01
2023-06-29T03:51:58.365Z,78.06
2023-06-29T03:53:00.047Z,77.60
2023-06-29T03:54:01.663Z,77.60
2023-06-29T03:55:03.797Z,77.67
2023-06-29T03:56:05.529Z,77.54
2023-06-29T03:57:07.174Z,77.91
2023-06-29T03:58:08.827Z,77.65
2023-06-29T03:59:10.563Z,78.42
2023-06-29T04:00:13.659Z,78.10
2023-06-29T04:01:16.626Z,78.23
2023-06-29T04:02:18.222Z,78.16
2023-06-29T04:03:19.966Z,77.41
2023-06-29T04:04:21.728Z,76.89
2023-06-29T04:05:25.914Z,76.85
2023-06-29T04:06:27.555Z,76.55
2023-06-29T04:07:29.184Z,76.27
2023-06-29T04:08:30.901Z,76.04
2023-06-29T04:09:32.546Z,76.35
2023-06-29T04:10:34.471Z,76.18
2023-06-29T04:11:36.369Z,76.36
2023-06-29T04:12:38.038Z,76.52
2023-06-29T04:13:39.785Z,76.90
2023-06-29T04:14:41.493Z,77.03
2023-06-29T04:15:43.482Z,77.20
2023-06-29T04:16:46.800Z,77.38
2023-06-29T04:17:48.590Z,77.75
2023-06-29T04:18:50.486Z,77.09
2023-06-29T04:19:52.152Z,76.97
2023-06-29T04:20:54.463Z,76.54
2023-06-29T04:21:56.128Z,76.71
2023-06-29T04:22:57.834Z,76.55
2023-06-29T04:23:59.412Z,75.92
2023-06-29T04:25:01.007Z,75.98
2023-06-29T04:26:02.602Z,76.05
2023-06-29T04:27:04.877Z,76.30
2023-06-29T04:28:06.564Z,76.51
2023-06-29T04:29:08.229Z,76.01
2023-06-29T04:30:10.471Z,76.19
2023-06-29T04:31:12.133Z,76.49
2023-06-29T04:32:15.217Z,76.26
2023-06-29T04:33:16.980Z,76.23
2023-06-29T04:34:18.652Z,74.43
2023-06-29T04:35:20.253Z,73.99
2023-06-29T04:36:21.881Z,73.72
2023-06-29T04:37:23.725Z,74.17
2023-06-29T04:38:25.393Z,74.11
2023-06-29T04:39:26.993Z,75.60
2023-06-29T04:40:28.644Z,74.24
2023-06-29T04:41:30.335Z,75.62
2023-06-29T04:42:31.928Z,75.11
2023-06-29T04:43:34.160Z,75.47
2023-06-29T04:44:35.846Z,75.85
2023-06-29T04:45:37.440Z,74.19
2023-06-29T04:46:40.538Z,74.20
2023-06-29T04:47:43.614Z,76.57
2023-06-29T04:48:45.358Z,76.79
2023-06-29T04:49:48.991Z,76.25
2023-06-29T04:50:50.859Z,74.04
2023-06-29T04:51:52.516Z,74.24
2023-06-29T04:52:54.556Z,73.79
2023-06-29T04:53:58.603Z,73.17
2023-06-29T04:55:00.222Z,73.95
2023-06-29T04:56:02.515Z,71.95
2023-06-29T04:57:04.814Z,72.29
2023-06-29T04:58:06.641Z,73.02
2023-06-29T04:59:08.437Z,73.05
2023-06-29T05:00:11.116Z,73.81
2023-06-29T05:01:12.838Z,74.10
2023-06-29T05:02:14.500Z,73.80
2023-06-29T05:03:17.835Z,72.20
2023-06-29T05:04:19.518Z,73.14
2023-06-29T05:05:21.164Z,73.78
2023-06-29T05:06:22.760Z,72.90
2023-06-29T05:07:24.447Z,72.05
2023-06-29T05:08:26.056Z,72.46
2023-06-29T05:09:27.686Z,72.76
2023-06-29T05:10:29.302Z,72.69
2023-06-29T05:11:32.594Z,71.97
2023-06-29T05:12:35.478Z,71.43
2023-06-29T05:13:37.176Z,71.58
2023-06-29T05:14:38.786Z,71.73
2023-06-29T05:15:40.483Z,71.03
2023-06-29T05:16:42.173Z,70.02
2023-06-29T05:17:44.124Z,70.97
2023-06-29T05:18:47.088Z,70.86
2023-06-29T05:19:48.819Z,70.92
2023-06-29T05:20:50.518Z,70.63
2023-06-29T05:21:52.252Z,70.06
2023-06-29T05:22:54.027Z,69.76
2023-06-29T05:23:55.949Z,70.10
2023-06-29T05:24:57.586Z,70.08
2023-06-29T05:25:59.246Z,69.69
2023-06-29T05:27:00.950Z,70.82
2023-06-29T05:28:02.570Z,70.15
2023-06-29T05:29:06.157Z,70.32
2023-06-29T05:30:09.873Z,70.54
2023-06-29T05:31:12.327Z,71.40
2023-06-29T05:32:15.828Z,72.31
2023-06-29T05:33:17.520Z,72.88
2023-06-29T05:34:20.587Z,74.30
2023-06-29T05:35:22.199Z,73.69
2023-06-29T05:36:23.802Z,74.21
2023-06-29T05:37:25.885Z,72.95
2023-06-29T05:38:29.145Z,71.26
2023-06-29T05:39:30.857Z,71.84
2023-06-29T05:40:32.574Z,73.37
2023-06-29T05:41:34.360Z,72.33
2023-06-29T05:42:36.337Z,71.66
2023-06-29T05:43:40.994Z,72.01
2023-06-29T05:44:42.647Z,70.86
2023-06-29T05:45:44.456Z,70.36
2023-06-29T05:46:46.100Z,70.54
2023-06-29T05:47:47.935Z,69.59
2023-06-29T05:48:49.703Z,70.15
2023-06-29T05:49:52.637Z,69.39
2023-06-29T05:50:54.232Z,68.64
2023-06-29T05:51:58.813Z,69.09
2023-06-29T05:53:00.454Z,69.41
2023-06-29T05:54:03.372Z,67.85
2023-06-29T05:55:05.817Z,68.71
2023-06-29T05:56:07.471Z,69.18
2023-06-29T05:57:09.089Z,69.59
2023-06-29T05:58:10.747Z,70.37
2023-06-29T05:59:12.366Z,70.12
2023-06-29T06:00:15.062Z,70.54
2023-06-29T06:01:20.249Z,71.74
2023-06-29T06:02:22.012Z,70.69
2023-06-29T06:03:23.767Z,70.58
2023-06-29T06:04:25.483Z,70.31
2023-06-29T06:05:30.151Z,69.35
2023-06-29T06:06:32.002Z,70.39
2023-06-29T06:07:34.758Z,69.46
2023-06-29T06:08:36.497Z,69.21
2023-06-29T06:09:38.154Z,69.53
2023-06-29T06:10:39.898Z,70.28
2023-06-29T06:11:41.500Z,69.87
2023-06-29T06:12:43.129Z,69.76
2023-06-29T06:13:44.726Z,69.67
2023-06-29T06:14:46.490Z,69.29
2023-06-29T06:15:48.073Z,68.31
2023-06-29T06:16:49.693Z,69.10
2023-06-29T06:17:51.289Z,69.17
2023-06-29T06:18:52.898Z,69.29
2023-06-29T06:19:54.973Z,69.18
2023-06-29T06:20:57.941Z,68.93
2023-06-29T06:21:59.499Z,68.04
2023-06-29T06:23:01.121Z,68.01
2023-06-29T06:24:02.808Z,68.35
2023-06-29T06:25:05.035Z,67.68
2023-06-29T06:26:06.651Z,68.57
2023-06-29T06:27:08.381Z,68.31
2023-06-29T06:28:10.046Z,68.54
2023-06-29T06:29:11.786Z,67.41
2023-06-29T06:30:13.640Z,67.13
2023-06-29T06:31:32.077Z,68.28
2023-06-29T06:32:35.227Z,69.35
2023-06-29T06:33:36.862Z,69.56
2023-06-29T06:34:38.602Z,70.01
2023-06-29T06:35:40.352Z,69.13
2023-06-29T06:36:43.441Z,68.14
2023-06-29T06:37:45.117Z,68.99
2023-06-29T06:38:49.875Z,70.00
2023-06-29T06:39:51.968Z,69.96
2023-06-29T06:40:53.694Z,69.04
2023-06-29T06:41:55.394Z,67.35
2023-06-29T06:42:58.985Z,67.23
2023-06-29T06:44:04.071Z,66.95
2023-06-29T06:45:07.381Z,67.15
2023-06-29T06:46:09.475Z,66.59
2023-06-29T06:47:11.208Z,66.89
2023-06-29T06:48:12.864Z,68.15
2023-06-29T06:49:14.698Z,68.25
2023-06-29T06:50:16.448Z,68.76
2023-06-29T06:51:18.195Z,68.96
2023-06-29T06:52:21.149Z,68.25
2023-06-29T06:53:22.766Z,67.59
2023-06-29T06:54:24.390Z,67.72
2023-06-29T06:55:26.000Z,67.26
2023-06-29T06:56:27.717Z,66.08
2023-06-29T06:57:29.322Z,66.15
2023-06-29T06:58:30.958Z,67.18
2023-06-29T06:59:32.682Z,66.21
2023-06-29T07:00:34.409Z,65.62
2023-06-29T07:01:41.261Z,65.00
2023-06-29T07:02:42.970Z,65.10
2023-06-29T07:03:44.655Z,65.48
2023-06-29T07:04:46.287Z,64.79
2023-06-29T07:05:47.971Z,64.32
2023-06-29T07:06:49.675Z,63.76
2023-06-29T07:07:52.751Z,63.72
2023-06-29T07:08:54.370Z,63.19
2023-06-29T07:09:56.017Z,63.33
2023-06-29T07:11:00.175Z,63.06
2023-06-29T07:12:02.946Z,62.73
2023-06-29T07:13:04.572Z,63.73
2023-06-29T07:14:09.118Z,63.16
2023-06-29T07:15:10.859Z,62.53
2023-06-29T07:16:12.474Z,62.55
2023-06-29T07:17:14.206Z,64.78
2023-06-29T07:18:18.028Z,63.69
2023-06-29T07:21:30.995Z,65.56
2023-06-29T07:24:44.565Z,64.23
2023-06-29T07:25:47.903Z,63.40
2023-06-29T07:26:49.645Z,63.36
2023-06-29T07:27:51.445Z,63.83
2023-06-29T07:28:53.622Z,62.13
2023-06-29T07:29:55.259Z,62.78
2023-06-29T07:30:58.123Z,63.67
2023-06-29T07:32:00.090Z,63.28
2023-06-29T07:33:01.713Z,61.63
2023-06-29T07:34:03.694Z,61.71
2023-06-29T07:35:07.204Z,62.95
2023-06-29T07:36:09.488Z,64.40
2023-06-29T07:37:11.361Z,64.62
2023-06-29T07:38:13.765Z,63.47
2023-06-29T07:39:17.219Z,63.60
2023-06-29T07:40:18.952Z,62.96
2023-06-29T07:41:24.386Z,63.10
2023-06-29T07:42:38.846Z,63.45
2023-06-29T07:43:41.621Z,61.37
2023-06-29T07:44:43.892Z,62.11
2023-06-29T07:45:46.062Z,63.52
2023-06-29T07:46:47.940Z,62.72
2023-06-29T07:47:49.725Z,60.86
2023-06-29T07:48:52.390Z,60.79
2023-06-29T07:49:54.090Z,62.51
2023-06-29T07:50:55.800Z,62.34
2023-06-29T07:51:58.372Z,61.91
2023-06-29T07:53:00.021Z,63.98
2023-06-29T07:54:01.748Z,63.98
2023-06-29T07:55:05.419Z,62.03
2023-06-29T07:56:07.095Z,60.95
2023-06-29T07:59:18.165Z,60.10
2023-06-29T08:00:20.157Z,60.39
2023-06-29T08:01:21.813Z,57.28
2023-06-29T08:02:23.528Z,58.62
2023-06-29T08:03:25.261Z,59.79
2023-06-29T08:07:40.726Z,60.74
2023-06-29T08:08:42.531Z,61.12
2023-06-29T08:09:44.396Z,59.77
2023-06-29T08:10:47.769Z,59.74
2023-06-29T08:11:49.441Z,59.46
2023-06-29T08:12:51.065Z,59.77
2023-06-29T08:13:52.898Z,59.27
2023-06-29T08:14:54.470Z,59.20
2023-06-29T08:15:56.201Z,60.86
2023-06-29T08:16:57.834Z,60.36
2023-06-29T08:17:59.576Z,60.74
2023-06-29T08:19:01.350Z,60.07
2023-06-29T08:20:04.168Z,61.50
2023-06-29T08:21:05.840Z,62.06
2023-06-29T08:22:07.472Z,61.79
2023-06-29T08:23:09.044Z,61.31
2023-06-29T08:24:10.668Z,60.77
2023-06-29T08:25:12.498Z,60.78
2023-06-29T08:26:15.744Z,59.39
2023-06-29T08:27:18.585Z,59.88
2023-06-29T08:28:20.271Z,60.08
2023-06-29T08:29:21.954Z,58.67
2023-06-29T08:30:23.599Z,58.23
2023-06-29T08:31:25.430Z,59.12
2023-06-29T08:32:27.285Z,60.05
2023-06-29T08:33:29.110Z,60.32
2023-06-29T08:34:30.749Z,61.41
2023-06-29T08:35:32.333Z,61.10
2023-06-29T08:36:34.664Z,60.57
2023-06-29T08:37:36.415Z,59.21
2023-06-29T08:38:39.568Z,58.42
2023-06-29T08:39:41.635Z,58.00
2023-06-29T08:40:46.305Z,58.11
2023-06-29T08:41:49.392Z,56.75
2023-06-29T08:42:51.308Z,58.33
2023-06-29T08:43:53.068Z,57.13
2023-06-29T08:44:54.924Z,57.67
2023-06-29T08:45:56.632Z,57.89
2023-06-29T08:47:00.615Z,56.05
2023-06-29T08:48:03.159Z,56.42
2023-06-29T08:49:08.099Z,57.66
2023-06-29T08:50:11.162Z,58.68
2023-06-29T08:51:15.363Z,58.05
2023-06-29T08:52:17.993Z,58.00
2023-06-29T08:53:21.814Z,57.36
2023-06-29T08:54:23.832Z,58.19
2023-06-29T08:55:26.310Z,56.44
2023-06-29T08:56:29.024Z,55.94
2023-06-29T08:57:32.775Z,55.44
2023-06-29T08:58:34.431Z,54.88
2023-06-29T08:59:38.212Z,55.27
2023-06-29T09:00:41.188Z,55.34
2023-06-29T09:01:44.098Z,57.34
2023-06-29T09:02:46.110Z,55.22
2023-06-29T09:03:49.848Z,54.78
2023-06-29T09:04:51.790Z,55.65
2023-06-29T09:05:53.793Z,53.82
2023-06-29T09:06:55.484Z,53.12
2023-06-29T09:07:57.204Z,54.89
2023-06-29T09:08:59.810Z,52.21
2023-06-29T09:10:01.479Z,53.19
2023-06-29T09:11:03.177Z,53.31
2023-06-29T09:12:05.818Z,55.76
2023-06-29T09:13:08.794Z,57.33
2023-06-29T09:15:12.475Z,53.86
2023-06-29T09:16:16.708Z,52.42
2023-06-29T09:17:19.192Z,53.34
2023-06-29T09:18:21.831Z,52.65
2023-06-29T09:19:23.501Z,53.85
2023-06-29T09:20:25.422Z,52.37
2023-06-29T09:21:27.475Z,52.84
2023-06-29T09:22:29.147Z,51.55
2023-06-29T09:23:30.730Z,53.41
2023-06-29T09:24:34.296Z,51.70
2023-06-29T09:25:39.770Z,52.26
2023-06-29T09:26:41.716Z,51.14
2023-06-29T09:27:43.486Z,52.81
2023-06-29T09:28:47.486Z,53.51
2023-06-29T09:29:52.966Z,52.02
2023-06-29T09:30:54.715Z,51.41
2023-06-29T09:31:57.142Z,51.74
2023-06-29T09:33:06.235Z,49.74
2023-06-29T09:34:17.721Z,51.25
2023-06-29T09:35:22.691Z,51.03
2023-06-29T09:36:25.488Z,52.54
2023-06-29T09:37:27.197Z,50.14
2023-06-29T09:38:31.342Z,48.43
2023-06-29T09:39:32.975Z,48.21
2023-06-29T09:40:47.533Z,49.62
2023-06-29T09:41:50.269Z,50.50
2023-06-29T09:42:51.913Z,51.15
2023-06-29T09:43:54.980Z,49.17
2023-06-29T09:45:00.373Z,46.79
2023-06-29T09:46:06.731Z,48.45
2023-06-29T09:49:18.233Z,46.36
2023-06-29T09:50:21.182Z,48.37
2023-06-29T09:51:24.099Z,47.37
2023-06-29T09:52:26.032Z,46.42
2023-06-29T09:53:31.722Z,50.60
2023-06-29T09:54:35.322Z,51.31
2023-06-29T09:55:37.459Z,49.69
2023-06-29T09:56:39.146Z,48.08
2023-06-29T09:57:41.858Z,46.54
2023-06-29T09:58:43.652Z,46.53
2023-06-29T09:59:46.681Z,47.59
2023-06-29T10:00:48.534Z,47.17
2023-06-29T10:01:50.246Z,45.80
2023-06-29T10:02:51.972Z,45.63
2023-06-29T10:03:53.628Z,44.94
2023-06-29T10:04:55.273Z,47.55
2023-06-29T10:06:02.245Z,47.37
2023-06-29T10:07:06.794Z,46.61
2023-06-29T10:08:11.948Z,44.62
2023-06-29T10:09:17.699Z,46.68
2023-06-29T10:10:21.250Z,44.86
2023-06-29T10:11:27.736Z,46.05
2023-06-29T10:12:29.641Z,45.19
2023-06-29T10:13:38.036Z,44.96
2023-06-29T10:14:44.361Z,46.56
2023-06-29T10:15:52.138Z,47.78
2023-06-29T10:16:56.662Z,48.63
2023-06-29T10:18:03.998Z,48.63
2023-06-29T10:19:13.277Z,47.80
2023-06-29T10:20:17.421Z,48.40
2023-06-29T10:21:19.310Z,46.58
2023-06-29T10:22:22.146Z,46.76
2023-06-29T10:23:27.226Z,47.41
2023-06-29T10:24:32.749Z,46.95
2023-06-29T10:25:38.015Z,46.55
2023-06-29T10:26:40.988Z,47.47
2023-06-29T10:27:43.896Z,47.39
2023-06-29T10:28:45.914Z,49.21
2023-06-29T10:29:49.165Z,50.08
2023-06-29T10:30:58.803Z,49.21
2023-06-29T10:32:00.517Z,49.37
2023-06-29T10:33:05.309Z,50.84
2023-06-29T10:34:07.828Z,49.88
2023-06-29T10:35:10.389Z,47.82
2023-06-29T10:36:14.161Z,47.84
2023-06-29T10:37:30.733Z,47.39
2023-06-29T10:38:32.886Z,44.59
2023-06-29T10:39:40.431Z,46.10
2023-06-29T10:40:49.362Z,43.12
2023-06-29T10:41:50.980Z,45.56
2023-06-29T10:42:54.665Z,48.50
2023-06-29T10:43:56.869Z,46.27
2023-06-29T10:44:58.509Z,46.13
2023-06-29T10:46:01.706Z,46.92
2023-06-29T10:47:04.130Z,46.19
2023-06-29T10:48:07.993Z,44.79
2023-06-29T10:49:20.918Z,47.14
2023-06-29T10:50:22.816Z,46.27
2023-06-29T10:51:24.411Z,47.88
2023-06-29T10:52:26.125Z,47.11
2023-06-29T10:53:30.060Z,45.34
2023-06-29T10:54:32.780Z,45.25
2023-06-29T10:55:46.597Z,43.02
2023-06-29T10:56:57.047Z,44.92
2023-06-29T10:58:00.606Z,43.54
2023-06-29T10:59:02.343Z,45.93
2023-06-29T11:00:05.249Z,44.58
2023-06-29T11:01:09.073Z,44.32
2023-06-29T11:02:11.011Z,45.01
2023-06-29T11:03:13.736Z,43.96
2023-06-29T11:04:15.863Z,44.45
2023-06-29T11:05:19.621Z,44.29
2023-06-29T11:07:43.338Z,43.56
2023-06-29T11:08:48.674Z,43.65
2023-06-29T11:10:00.253Z,43.33
2023-06-29T11:11:13.479Z,44.25
2023-06-29T11:12:16.916Z,45.91
2023-06-29T11:13:19.740Z,46.15
2023-06-29T11:14:21.997Z,46.01
2023-06-29T11:15:24.611Z,47.27
2023-06-29T11:16:28.228Z,45.28
2023-06-29T11:17:30.018Z,47.11
2023-06-29T11:18:31.918Z,48.07
2023-06-29T11:19:33.727Z,45.76
2023-06-29T11:20:38.388Z,43.40
2023-06-29T11:21:40.014Z,43.71
2023-06-29T11:22:41.718Z,44.31
2023-06-29T11:23:50.079Z,42.31
2023-06-29T11:24:51.762Z,42.14
2023-06-29T11:25:53.469Z,41.39
2023-06-29T11:26:55.225Z,38.48
2023-06-29T11:27:57.998Z,39.33
2023-06-29T11:28:59.569Z,38.68
2023-06-29T11:30:06.816Z,36.98
2023-06-29T11:31:08.777Z,37.39
2023-06-29T11:32:13.613Z,37.58
2023-06-29T11:34:37.235Z,40.78
2023-06-29T11:35:43.224Z,40.86
2023-06-29T11:38:06.601Z,43.05
2023-06-29T11:39:09.954Z,42.04
2023-06-29T11:40:19.871Z,43.60
2023-06-29T11:41:21.476Z,42.79
2023-06-29T11:42:25.398Z,40.98
2023-06-29T11:44:29.623Z,41.63
2023-06-29T11:45:34.385Z,40.80
2023-06-29T11:46:36.783Z,38.01
2023-06-29T11:47:39.949Z,41.29
2023-06-29T11:48:41.642Z,41.41
2023-06-29T11:49:43.530Z,41.00
2023-06-29T11:50:45.162Z,40.17
2023-06-29T11:51:47.236Z,38.18
2023-06-29T11:52:49.708Z,40.55
2023-06-29T11:53:51.593Z,38.66
2023-06-29T11:54:53.420Z,38.90
2023-06-29T11:55:55.044Z,39.53
2023-06-29T11:56:56.692Z,42.55
2023-06-29T11:58:00.542Z,42.28
2023-06-29T11:59:05.115Z,42.70
2023-06-29T12:00:25.886Z,40.03
2023-06-29T12:02:34.294Z,40.13
2023-06-29T12:03:38.690Z,39.10
2023-06-29T12:04:53.673Z,38.91
2023-06-29T12:06:00.093Z,39.08
2023-06-29T12:07:01.821Z,36.81
2023-06-29T12:08:08.351Z,36.12
2023-06-29T12:09:13.071Z,33.41
2023-06-29T12:10:19.803Z,34.57
2023-06-29T12:11:22.898Z,35.22
2023-06-29T12:12:24.951Z,35.10
2023-06-29T12:13:26.610Z,33.42
2023-06-29T12:14:28.585Z,35.40
2023-06-29T12:15:32.627Z,37.56
2023-06-29T12:18:50.121Z,42.22
2023-06-29T12:21:01.416Z,41.63
2023-06-29T12:22:05.343Z,41.30
2023-06-29T12:23:07.246Z,41.67
2023-06-29T12:24:09.153Z,43.11
2023-06-29T12:25:12.362Z,41.01
2023-06-29T12:26:14.358Z,42.10
2023-06-29T12:27:16.089Z,38.81
2023-06-29T12:28:17.778Z,38.49
2023-06-29T12:29:19.397Z,38.21
2023-06-29T12:30:21.793Z,38.07
2023-06-29T12:31:26.602Z,38.28
2023-06-29T12:32:28.550Z,38.13
2023-06-29T12:33:30.245Z,38.29
2023-06-29T12:34:33.298Z,37.60
2023-06-29T12:35:35.156Z,38.98
2023-06-29T12:36:36.907Z,41.72
2023-06-29T12:37:38.520Z,42.67
2023-06-29T12:38:40.267Z,42.90
2023-06-29T12:39:41.826Z,43.02
2023-06-29T12:40:43.454Z,41.98
2023-06-29T12:41:44.992Z,40.81
2023-06-29T12:42:46.659Z,41.22
2023-06-29T12:43:48.525Z,41.55
2023-06-29T12:44:51.224Z,39.96
2023-06-29T12:45:52.934Z,41.00
2023-06-29T12:46:54.611Z,38.59
2023-06-29T12:47:56.298Z,39.27
2023-06-29T12:49:00.310Z,41.48
2023-06-29T12:50:07.200Z,43.07
2023-06-29T12:51:08.842Z,42.77
2023-06-29T12:52:10.397Z,41.34
2023-06-29T12:53:12.008Z,41.47
2023-06-29T12:54:13.719Z,42.10
2023-06-29T12:55:15.424Z,41.81
2023-06-29T12:56:17.072Z,42.68
2023-06-29T12:57:19.168Z,43.13
2023-06-29T12:58:20.909Z,43.22
2023-06-29T12:59:22.500Z,40.90
2023-06-29T13:00:24.165Z,40.84
2023-06-29T13:01:25.918Z,40.16
2023-06-29T13:02:27.974Z,41.76
2023-06-29T13:03:30.092Z,41.55
2023-06-29T13:04:34.887Z,40.23
2023-06-29T13:05:38.112Z,41.40
2023-06-29T13:06:41.357Z,41.50
2023-06-29T13:07:43.093Z,41.29
2023-06-29T13:08:44.798Z,40.50
2023-06-29T13:09:47.592Z,39.53
2023-06-29T13:10:49.333Z,39.07
2023-06-29T13:11:54.009Z,38.15
2023-06-29T13:12:55.716Z,36.70
2023-06-29T13:13:57.566Z,35.42
2023-06-29T13:14:59.513Z,37.19
2023-06-29T13:16:01.178Z,35.82
2023-06-29T13:17:03.272Z,37.08
2023-06-29T13:18:04.938Z,35.65
2023-06-29T13:19:06.624Z,37.38
2023-06-29T13:20:08.920Z,39.33
2023-06-29T13:21:11.905Z,38.98
2023-06-29T13:22:13.860Z,35.68
2023-06-29T13:23:15.476Z,37.75
2023-06-29T13:24:17.249Z,36.04
2023-06-29T13:25:18.962Z,36.51
2023-06-29T13:26:20.560Z,37.68
2023-06-29T13:27:23.383Z,39.38
2023-06-29T13:28:25.026Z,37.36
2023-06-29T13:29:26.642Z,39.56
2023-06-29T13:30:28.323Z,39.01
2023-06-29T13:31:30.167Z,39.19
2023-06-29T13:32:31.927Z,39.72
2023-06-29T13:33:33.796Z,40.44
2023-06-29T13:34:35.552Z,39.95
2023-06-29T13:35:37.496Z,39.73
2023-06-29T13:36:40.602Z,36.65
2023-06-29T13:37:42.207Z,38.16
2023-06-29T13:38:43.822Z,36.34
2023-06-29T13:39:46.777Z,37.34
2023-06-29T13:40:50.030Z,37.14
2023-06-29T13:41:51.683Z,36.64
2023-06-29T13:42:54.080Z,36.41
2023-06-29T13:43:56.827Z,35.82
2023-06-29T13:44:58.409Z,35.84
2023-06-29T13:46:00.036Z,36.98
2023-06-29T13:47:01.737Z,37.60
2023-06-29T13:48:03.620Z,37.91
2023-06-29T13:49:05.476Z,38.85
2023-06-29T13:50:11.593Z,37.53